Time;durP1;ratioP1;P1;durP2;ratioP2;P2;SDS_P1;SDS_P2;PMS_P1;PMS_P2;Temp;Humidity;BMP_temperature;BMP_pressure;BME280_temperature;BME280_humidity;BME280_pressure;Samples;Min_cycle;Max_cycle;Signal;HPM_P1;HPM_P2
2021/03/23 00:01:00;;;;;;;15.60;4.78;;;;;;;11.43;50.84;101789.19;4982264;28;99210;-82
2021/03/23 00:03:30;;;;;;;12.73;5.07;;;;;;;10.91;52.15;101800.00;4987080;28;100993;-80
2021/03/23 00:05:58;;;;;;;11.32;4.85;;;;;;;11.43;50.88;101794.47;4989341;28;97417;-81
2021/03/23 00:08:28;;;;;;;15.68;4.68;;;;;;;11.10;51.61;101799.59;4985061;28;97255;-82
2021/03/23 00:10:56;;;;;;;17.02;4.85;;;;;;;11.42;50.77;101790.97;5004869;28;102121;-83
2021/03/23 00:13:22;;;;;;;17.92;4.28;;;;;;;11.50;50.76;101791.66;5013150;28;96595;-81
2021/03/23 00:15:50;;;;;;;23.98;9.00;;;;;;;11.80;49.93;101792.78;5000563;28;96399;-81
2021/03/23 00:18:17;;;;;;;12.48;4.85;;;;;;;11.86;50.39;101805.00;5012068;28;96818;-80
2021/03/23 00:20:44;;;;;;;15.38;4.43;;;;;;;10.82;53.45;101803.72;4996592;28;97871;-80
2021/03/23 00:23:10;;;;;;;10.57;4.15;;;;;;;11.19;52.74;101811.78;4997946;28;97952;-80
2021/03/23 00:25:36;;;;;;;16.88;3.80;;;;;;;11.44;52.43;101799.75;5001567;28;96815;-80
2021/03/23 00:28:03;;;;;;;12.02;3.83;;;;;;;11.28;53.63;101808.94;4989599;28;97078;-81
2021/03/23 00:30:29;;;;;;;13.15;4.63;;;;;;;11.25;53.47;101800.19;4985762;28;99722;-80
2021/03/23 00:32:56;;;;;;;13.20;5.03;;;;;;;11.47;53.41;101802.34;4993044;28;98131;-83
2021/03/23 00:35:22;;;;;;;13.73;4.90;;;;;;;11.15;55.00;101802.16;5003031;28;96954;-83
2021/03/23 00:37:51;;;;;;;12.45;4.07;;;;;;;10.82;55.22;101814.31;4996803;28;96797;-82
2021/03/23 00:40:21;;;;;;;10.60;3.72;;;;;;;10.83;55.20;101804.59;4992518;28;99096;-81
2021/03/23 00:42:48;;;;;;;11.35;4.32;;;;;;;11.15;54.52;101795.09;4999974;28;99232;-83
2021/03/23 00:45:14;;;;;;;9.90;4.90;;;;;;;11.37;54.37;101800.78;4998585;28;97588;-81
2021/03/23 00:47:40;;;;;;;12.60;4.50;;;;;;;11.00;54.93;101799.84;4991970;28;96939;-82
2021/03/23 00:50:09;;;;;;;9.32;4.18;;;;;;;11.01;54.98;101791.00;4983803;28;99607;-82
2021/03/23 00:52:36;;;;;;;12.40;3.95;;;;;;;11.03;54.40;101794.47;5000503;28;99125;-82
2021/03/23 00:55:02;;;;;;;11.75;3.38;;;;;;;11.19;54.37;101791.47;4993719;28;98576;-82
2021/03/23 00:57:28;;;;;;;12.85;3.97;;;;;;;11.39;53.31;101788.41;4996990;28;97121;-81
2021/03/23 00:59:54;;;;;;;6.35;3.25;;;;;;;11.67;52.79;101788.66;4988496;28;98447;-83
2021/03/23 01:02:21;;;;;;;;;;;;;;;11.13;54.12;101790.75;5013376;28;96677;-81
2021/03/23 01:04:47;;;;;;;10.40;3.70;;;;;;;11.23;53.85;101794.03;5011020;28;97052;-80
2021/03/23 01:07:15;;;;;;;10.75;3.38;;;;;;;11.29;54.02;101796.59;5003021;28;96822;-82
2021/03/23 01:09:41;;;;;;;12.45;4.00;;;;;;;11.44;53.17;101791.81;5005419;28;97260;-82
2021/03/23 01:12:09;;;;;;;8.70;3.63;;;;;;;11.47;53.45;101797.03;5012285;28;99459;-81
2021/03/23 01:14:36;;;;;;;8.38;3.88;;;;;;;11.44;53.11;101802.41;5013417;28;96501;-82
2021/03/23 01:17:03;;;;;;;11.02;3.67;;;;;;;11.31;53.34;101789.47;5014915;28;96725;-82
2021/03/23 01:19:29;;;;;;;13.00;3.25;;;;;;;10.96;54.51;101806.94;5018802;28;99225;-82
2021/03/23 01:21:56;;;;;;;10.40;3.50;;;;;;;11.17;54.46;101805.63;5017980;28;97700;-82
2021/03/23 01:24:23;;;;;;;8.98;3.60;;;;;;;11.07;55.00;101802.31;5018952;28;97972;-80
2021/03/23 01:26:49;;;;;;;11.45;3.72;;;;;;;11.23;54.14;101796.69;5015740;28;97111;-82
2021/03/23 01:29:16;;;;;;;8.63;3.42;;;;;;;11.01;54.54;101806.88;4998581;28;101477;-82
2021/03/23 01:31:42;;;;;;;8.55;3.13;;;;;;;10.61;55.25;101799.72;5012069;28;100485;-82
2021/03/23 01:34:09;;;;;;;10.27;3.35;;;;;;;10.88;55.06;101806.25;5016187;28;96424;-83
2021/03/23 01:36:35;;;;;;;8.15;3.65;;;;;;;10.60;55.95;101803.25;5014449;28;96491;-82
2021/03/23 01:39:01;;;;;;;6.55;3.33;;;;;;;10.63;55.95;101803.19;5008094;28;98261;-83
2021/03/23 01:41:28;;;;;;;8.35;3.65;;;;;;;10.86;55.15;101802.75;4992577;28;97826;-82
2021/03/23 01:43:55;;;;;;;7.05;3.67;;;;;;;11.22;54.38;101806.44;4995170;28;96775;-81
2021/03/23 01:46:40;;;;;;;9.52;3.70;;;;;;;11.42;53.80;101806.84;4990875;28;98587;-82
2021/03/23 01:49:11;;;;;;;9.95;4.07;;;;;;;11.38;53.57;101810.47;4990508;28;98080;-82
2021/03/23 01:51:37;;;;;;;9.82;4.38;;;;;;;11.26;53.48;101810.75;4996762;28;100854;-82
2021/03/23 01:54:09;;;;;;;9.75;3.83;;;;;;;11.29;53.39;101812.47;4996809;28;97296;-82
2021/03/23 01:56:36;;;;;;;7.10;4.18;;;;;;;11.37;53.46;101806.06;4998858;28;96732;-82
2021/03/23 01:59:04;;;;;;;9.30;4.07;;;;;;;11.17;54.67;101808.28;4993197;28;99267;-82
2021/03/23 02:01:31;;;;;;;10.73;4.20;;;;;;;11.16;54.29;101804.75;4997942;28;100359;-82
2021/03/23 02:03:58;;;;;;;9.88;4.60;;;;;;;10.49;56.50;101807.88;4998161;28;96755;-82
2021/03/23 02:06:40;;;;;;;8.23;4.65;;;;;;;10.55;56.03;101804.25;4993892;28;96806;-82
2021/03/23 02:09:09;;;;;;;13.10;5.07;;;;;;;11.02;54.68;101798.03;4988609;28;97623;-82
2021/03/23 02:11:43;;;;;;;11.43;4.70;;;;;;;10.90;54.84;101804.44;4995580;28;100553;-81
2021/03/23 02:14:16;;;;;;;10.57;4.70;;;;;;;10.51;56.24;101810.47;4997807;28;96846;-83
2021/03/23 02:16:43;;;;;;;11.55;5.32;;;;;;;10.77;56.01;101808.22;4998637;28;96833;-83
2021/03/23 02:19:10;;;;;;;17.52;5.70;;;;;;;10.78;55.47;101809.97;4992139;28;98379;-83
2021/03/23 02:21:40;;;;;;;13.77;6.10;;;;;;;10.40;56.19;101802.75;4996331;28;98047;-83
2021/03/23 02:24:08;;;;;;;16.88;7.43;;;;;;;10.83;56.10;101809.88;4985997;28;96872;-84
2021/03/23 02:26:36;;;;;;;13.82;6.93;;;;;;;10.69;56.52;101805.75;4997373;28;96856;-82
2021/03/23 02:29:05;;;;;;;18.88;8.35;;;;;;;10.91;55.53;101805.28;4979160;28;99026;-82
2021/03/23 02:31:33;;;;;;;13.80;6.82;;;;;;;10.39;56.94;101806.28;4997674;28;101616;-83
2021/03/23 02:34:02;;;;;;;19.38;8.85;;;;;;;10.84;55.89;101811.59;4989527;28;98424;-82
2021/03/23 02:36:28;;;;;;;13.13;6.57;;;;;;;10.36;57.06;101812.53;4979931;28;96786;-82
2021/03/23 02:38:56;;;;;;;10.43;6.82;;;;;;;10.50;57.46;101814.88;4985347;28;99266;-81
2021/03/23 02:41:22;;;;;;;22.92;11.02;;;;;;;10.52;58.15;101809.59;4984534;28;101299;-83
2021/03/23 02:43:49;;;;;;;15.20;7.53;;;;;;;10.99;56.44;101817.47;4992801;28;96871;-82
2021/03/23 02:46:16;;;;;;;12.90;6.93;;;;;;;10.91;56.56;101813.22;4989806;28;96845;-81
2021/03/23 02:48:42;;;;;;;15.35;7.57;;;;;;;10.98;56.34;101817.50;4985953;28;99755;-82
2021/03/23 02:51:12;;;;;;;17.58;7.82;;;;;;;10.77;56.84;101819.66;4984508;28;99262;-82
2021/03/23 02:53:38;;;;;;;12.48;7.78;;;;;;;10.80;56.75;101829.31;4989044;28;96901;-82
2021/03/23 02:56:06;;;;;;;12.52;7.18;;;;;;;10.13;58.67;101824.31;4986485;28;97045;-81
2021/03/23 02:58:32;;;;;;;12.23;8.18;;;;;;;10.09;59.11;101827.94;4992613;28;102028;-82
2021/03/23 03:00:58;;;;;;;;;;;;;;;10.17;58.81;101826.06;4987889;28;98285;-82
2021/03/23 03:03:24;;;;;;;;;;;;;;;10.26;58.39;101820.63;5001212;28;97001;-81
2021/03/23 03:05:50;;;;;;;;;;;;;;;10.79;57.10;101828.44;4994965;28;96940;-81
2021/03/23 03:08:16;;;;;;;;;;;;;;;10.56;57.05;101819.22;4978150;28;99147;-80
2021/03/23 03:10:42;;;;;;;;;;;;;;;10.34;57.60;101816.06;4996126;28;99141;-82
2021/03/23 03:13:08;;;;;;;;;;;;;;;10.18;57.76;101822.50;4990101;28;96695;-81
2021/03/23 03:15:34;;;;;;;;;;;;;;;10.26;58.01;101823.25;4993920;28;96694;-80
2021/03/23 03:18:00;;;;;;;;;;;;;;;9.98;58.39;101828.94;4985886;28;99898;-80
2021/03/23 03:20:26;;;;;;;;;;;;;;;10.11;58.12;101832.25;4997819;28;99133;-82
2021/03/23 03:22:52;;;;;;;;;;;;;;;10.19;57.87;101840.09;4995953;28;97001;-81
2021/03/23 03:25:20;;;;;;;;;;;;;;;10.33;57.39;101836.34;4995626;28;96967;-81
2021/03/23 03:27:46;;;;;;;;;;;;;;;9.98;58.93;101842.16;4991246;28;98955;-80
2021/03/23 03:30:17;;;;;;;;;;;;;;;10.32;57.72;101841.63;4981023;28;98122;-80
2021/03/23 03:32:43;;;;;;;;;;;;;;;10.62;56.94;101837.59;5000050;28;96723;-80
2021/03/23 03:35:10;;;;;;;;;;;;;;;10.54;56.45;101842.16;5007643;28;96774;-81
2021/03/23 03:37:35;;;;;;;;;;;;;;;9.96;58.05;101841.34;5001077;28;98721;-81
2021/03/23 03:40:01;;;;;;;;;;;;;;;10.42;56.91;101840.59;5007469;28;99821;-82
2021/03/23 03:42:27;;;;;;;;;;;;;;;10.30;57.39;101846.09;5002340;28;96741;-81
2021/03/23 03:44:53;;;;;;;;;;;;;;;10.21;57.47;101859.44;4999332;28;96656;-81
2021/03/23 03:47:20;;;;;;;;;;;;;;;10.05;57.75;101849.97;4997196;28;98378;-81
2021/03/23 03:49:47;;;;;;;;;;;;;;;10.48;57.05;101858.13;4994728;28;101112;-81
2021/03/23 03:52:13;;;;;;;;;;;;;;;10.21;57.38;101848.88;4990816;28;96901;-81
2021/03/23 03:54:39;;;;;;;;;;;;;;;10.38;57.02;101857.38;4993265;28;97562;-81
2021/03/23 03:57:05;;;;;;;;;;;;;;;10.41;56.88;101859.13;4992684;28;98923;-81
2021/03/23 03:59:31;;;;;;;;;;;;;;;9.75;58.67;101849.56;4993745;28;101965;-81
2021/03/23 04:01:57;;;;;;;;;;;;;;;10.13;57.82;101851.59;4986026;28;96880;-80
2021/03/23 04:04:24;;;;;;;;;;;;;;;10.08;57.94;101863.16;4991780;28;96809;-80
2021/03/23 04:06:49;;;;;;;;;;;;;;;10.24;57.60;101851.50;4976362;28;99236;-80
2021/03/23 04:09:15;;;;;;;;;;;;;;;9.89;58.67;101855.53;4988882;28;100481;-81
2021/03/23 04:11:41;;;;;;;;;;;;;;;10.16;57.43;101855.97;4980319;28;98871;-81
2021/03/23 04:14:07;;;;;;;;;;;;;;;9.74;58.51;101850.47;4993529;28;97034;-82
2021/03/23 04:16:33;;;;;;;;;;;;;;;10.20;57.29;101852.41;4987846;28;98121;-81
2021/03/23 04:18:59;;;;;;;;;;;;;;;10.36;56.41;101861.84;4980534;28;101499;-81
2021/03/23 04:21:26;;;;;;;;;;;;;;;10.30;56.47;101854.03;4987109;28;96709;-82
2021/03/23 04:23:52;;;;;;;;;;;;;;;10.47;55.94;101851.97;4988301;28;96735;-81
2021/03/23 04:26:18;;;;;;;;;;;;;;;10.31;55.91;101853.97;4977057;28;98561;-82
2021/03/23 04:28:44;;;;;;;;;;;;;;;10.59;55.07;101857.03;4982349;28;100536;-81
2021/03/23 04:31:16;;;;;;;;;;;;;;;9.94;56.65;101861.59;4988068;28;97671;-81
2021/03/23 04:33:42;;;;;;;;;;;;;;;10.22;56.56;101866.47;4981235;28;97061;-81
2021/03/23 04:36:08;;;;;;;;;;;;;;;9.67;57.62;101862.00;4992716;28;102188;-81
2021/03/23 04:38:36;;;;;;;;;;;;;;;10.26;56.33;101862.88;4976377;28;98845;-81
2021/03/23 04:41:03;;;;;;;;;;;;;;;9.66;57.10;101856.72;4988032;28;97564;-81
2021/03/23 04:43:30;;;;;;;;;;;;;;;9.98;56.40;101858.00;4985407;28;97864;-81
2021/03/23 04:45:57;;;;;;;;;;;;;;;9.96;56.31;101865.09;4983011;28;98921;-82
2021/03/23 04:48:23;;;;;;;;;;;;;;;10.32;54.96;101868.06;4987692;28;100333;-82
2021/03/23 04:50:49;;;;;;;;;;;;;;;10.37;55.01;101866.25;4976886;28;97556;-82
2021/03/23 04:53:17;;;;;;;;;;;;;;;10.26;55.29;101874.31;4984596;28;96860;-82
2021/03/23 04:55:44;;;;;;;;;;;;;;;9.98;55.60;101871.19;4992280;28;102289;-81
2021/03/23 04:58:10;;;;;;;;;;;;;;;10.29;55.17;101874.28;4988954;28;99289;-82
2021/03/23 05:00:36;;;;;;;;;;;;;;;10.57;54.64;101879.94;4994155;28;96847;-82
2021/03/23 05:03:02;;;;;;;;;;;;;;;10.29;55.00;101876.94;4989816;28;96700;-81
2021/03/23 05:05:27;;;;;;;;;;;;;;;10.70;54.17;101881.47;4998399;28;100343;-82
2021/03/23 05:07:53;;;;;;;;;;;;;;;10.30;55.08;101885.72;4995982;28;97696;-81
2021/03/23 05:10:20;;;;;;;;;;;;;;;10.49;54.37;101878.38;4993053;28;96750;-82
2021/03/23 05:12:46;;;;;;;;;;;;;;;10.74;53.93;101882.31;4993570;28;98595;-82
2021/03/23 05:15:12;;;;;;;;;;;;;;;10.58;53.79;101886.09;4979863;28;100507;-83
2021/03/23 05:17:38;;;;;;;;;;;;;;;10.57;54.20;101893.16;4993694;28;101364;-82
2021/03/23 05:20:06;;;;;;;;;;;;;;;10.70;54.02;101894.69;4989503;28;97086;-83
2021/03/23 05:22:32;;;;;;;;;;;;;;;10.90;53.69;101896.09;4998586;28;98189;-83
2021/03/23 05:24:58;;;;;;;;;;;;;;;9.87;55.58;101896.91;4995483;28;98925;-81
2021/03/23 05:27:24;;;;;;;;;;;;;;;10.36;55.31;101893.56;4991655;28;101059;-82
2021/03/23 05:32:39;;;;;;;;;;;;;;;10.81;53.92;101902.44;5002232;28;96656;-81
2021/03/23 05:35:09;;;;;;;;;;;;;;;10.78;54.17;101899.84;4998223;28;99963;-81
2021/03/23 05:37:51;;;;;;;;;;;;;;;10.88;54.46;101905.84;5005719;28;101943;-82
2021/03/23 05:40:20;;;;;;;;;;;;;;;10.32;55.39;101899.75;5009759;28;96813;-82
2021/03/23 05:43:01;;;;;;;;;;;;;;;10.63;55.08;101903.63;5011384;28;97260;-84
2021/03/23 05:45:33;;;;;;;;;;;;;;;10.65;54.64;101903.59;5002925;28;97869;-82
2021/03/23 05:48:23;;;;;;;;;;;;;;;10.05;56.11;101898.38;5004149;28;97663;-81
2021/03/23 05:50:58;;;;;;;;;;;;;;;10.94;54.45;101906.63;5006926;28;96649;-80
2021/03/23 05:53:28;;;;;;;;;;;;;;;10.96;53.68;101906.59;5012977;28;96495;-81
2021/03/23 05:55:58;;;;;;;;;;;;;;;10.62;54.65;101907.19;5014482;28;97775;-82
2021/03/23 05:58:24;;;;;;;;;;;;;;;10.41;55.24;101902.28;5003326;28;97781;-81
2021/03/23 06:00:59;;;;;;;;;;;;;;;10.42;54.87;101901.38;5004330;28;97061;-82
2021/03/23 06:03:27;;;;;;;;;;;;;;;10.74;54.81;101901.69;5001551;28;96900;-81
2021/03/23 06:05:56;;;;;;;;;;;;;;;10.96;53.89;101901.31;4995749;28;98170;-81
2021/03/23 06:08:26;;;;;;;;;;;;;;;11.06;53.45;101909.03;5009050;28;100632;-82
2021/03/23 06:11:09;;;;;;;;;;;;;;;11.17;53.41;101904.38;4989388;28;97063;-82
2021/03/23 06:13:42;;;;;;;;;;;;;;;11.03;53.67;101900.25;4997908;28;97004;-81
2021/03/23 06:16:14;;;;;;;;;;;;;;;10.87;54.23;101909.41;4995871;28;97580;-82
2021/03/23 06:18:45;;;;;;;;;;;;;;;10.89;54.49;101913.78;4988352;28;97596;-82
2021/03/23 06:21:14;;;;;;;;;;;;;;;10.48;54.93;101905.69;4997979;28;97410;-82
2021/03/23 06:23:47;;;;;;;;;;;;;;;10.89;54.55;101923.47;4995898;28;96829;-82
2021/03/23 06:26:18;;;;;;;;;;;;;;;11.21;53.02;101914.94;4985262;28;98897;-82
2021/03/23 06:28:54;;;;;;;;;;;;;;;11.20;53.21;101916.69;4984392;28;98329;-82
2021/03/23 06:31:30;;;;;;;;;;;;;;;11.01;53.70;101924.13;4985687;28;97077;-82
2021/03/23 06:33:59;;;;;;;;;;;;;;;11.24;52.94;101917.50;4986706;28;96766;-81
2021/03/23 06:36:26;;;;;;;;;;;;;;;11.03;53.85;101911.72;4990069;28;98833;-81
2021/03/23 06:38:52;;;;;;;;;;;;;;;10.55;55.07;101925.81;4987937;28;97849;-81
2021/03/23 06:41:20;;;;;;;;;;;;;;;10.65;54.53;101923.00;4991234;28;97018;-81
2021/03/23 06:43:47;;;;;;;;;;;;;;;10.97;53.79;101933.00;4995184;28;98395;-82
2021/03/23 06:46:22;;;;;;;;;;;;;;;10.75;54.24;101935.16;4986672;28;99400;-83
2021/03/23 06:49:00;;;;;;;;;;;;;;;10.39;55.45;101935.75;4982852;28;101279;-81
2021/03/23 06:51:27;;;;;;;;;;;;;;;10.35;55.92;101936.72;4990035;28;97674;-81
2021/03/23 06:53:52;;;;;;;;;;;;;;;10.99;54.37;101941.78;4991943;28;98446;-83
2021/03/23 06:56:20;;;;;;;;;;;;;;;10.61;55.09;101939.81;4988383;28;98236;-81
2021/03/23 06:58:46;;;;;;;;;;;;;;;10.88;54.33;101943.75;4989661;28;99485;-81
2021/03/23 07:01:16;;;;;;;;;;;;;;;11.04;54.64;101944.31;4993228;28;97634;-82
2021/03/23 07:03:43;;;;;;;;;;;;;;;10.41;55.18;101935.75;4993919;28;97472;-81
2021/03/23 07:06:21;;;;;;;;;;;;;;;10.62;54.79;101930.13;4986872;28;98495;-81
2021/03/23 07:09:02;;;;;;;;;;;;;;;10.93;53.60;101943.66;4990238;28;99784;-81
2021/03/23 07:11:28;;;;;;;;;;;;;;;10.49;55.04;101945.31;4988642;28;96908;-82
2021/03/23 07:13:55;;;;;;;;;;;;;;;10.64;54.37;101942.38;4994782;28;97951;-82
2021/03/23 07:16:29;;;;;;;;;;;;;;;10.81;53.68;101943.88;4986357;28;97912;-83
2021/03/23 07:19:07;;;;;;;;;;;;;;;10.97;53.13;101940.03;4993621;28;99029;-82
2021/03/23 07:21:38;;;;;;;;;;;;;;;10.98;52.63;101944.44;4994019;28;97894;-83
2021/03/23 07:24:06;;;;;;;;;;;;;;;10.77;53.88;101945.69;4990578;28;98669;-81
2021/03/23 07:26:33;;;;;;;;;;;;;;;11.18;52.23;101942.31;4993101;28;101704;-80
2021/03/23 07:29:22;;;;;;;;;;;;;;;11.42;52.00;101946.25;4994600;28;99229;-81
2021/03/23 07:31:53;;;;;;;;;;;;;;;11.35;51.69;101948.16;4992067;28;97239;-82
2021/03/23 07:34:22;;;;;;;;;;;;;;;11.32;51.81;101952.63;4992941;28;97143;-79
2021/03/23 07:36:51;;;;;;;;;;;;;;;10.65;53.25;101952.06;4989276;28;98053;-81
2021/03/23 07:39:19;;;;;;;;;;;;;;;10.94;52.61;101956.88;4992647;28;98028;-81
2021/03/23 07:41:47;;;;;;;;;;;;;;;10.74;53.23;101957.22;4993647;28;96880;-81
2021/03/23 07:44:17;;;;;;;;;;;;;;;11.09;52.58;101963.66;4990626;28;96807;-81
2021/03/23 07:46:44;;;;;;;;;;;;;;;11.55;51.40;101964.50;4994779;28;100037;-81
2021/03/23 07:49:20;;;;;;;;;;;;;;;11.83;50.11;101959.53;4996629;28;100015;-82
2021/03/23 07:51:53;;;;;;;;;;;;;;;11.96;49.55;101966.31;5002199;28;96840;-83
2021/03/23 07:54:29;;;;;;;;;;;;;;;11.76;50.42;101967.63;5002326;28;97528;-81
2021/03/23 07:57:01;;;;;;;;;;;;;;;11.90;49.83;101970.88;4995996;28;98276;-80
2021/03/23 07:59:42;;;;;;;;;;;;;;;11.74;49.86;101966.81;4995469;28;98927;-81
2021/03/23 08:02:22;;;;;;;;;;;;;;;10.84;52.17;101973.78;4991464;28;96822;-81
2021/03/23 08:04:53;;;;;;;;;;;;;;;11.27;50.60;101967.72;4994492;28;97241;-81
2021/03/23 08:07:23;;;;;;;;;;;;;;;11.07;51.79;101966.31;4990561;28;98985;-81
2021/03/23 08:09:56;;;;;;;;;;;;;;;11.29;50.83;101971.22;4995989;28;98851;-81
2021/03/23 08:12:37;;;;;;;;;;;;;;;11.22;50.81;101959.00;4996194;28;96827;-80
2021/03/23 08:15:07;;;;;;;;;;;;;;;11.72;49.57;101971.22;4994721;28;96854;-80
2021/03/23 08:17:57;;;;;;;;;;;;;;;11.48;50.63;101980.56;4988369;28;98676;-80
2021/03/23 08:20:40;;;;;;;;;;;;;;;11.25;50.63;101978.31;4995497;28;99088;-81
2021/03/23 08:23:16;;;;;;;;;;;;;;;11.39;50.25;101976.28;4993276;28;96707;-82
2021/03/23 08:25:45;;;;;;;;;;;;;;;11.46;50.39;101990.28;4983923;28;98712;-83
2021/03/23 08:28:14;;;;;;;;;;;;;;;11.61;49.97;101991.75;4995991;28;98249;-82
2021/03/23 08:31:01;;;;;;;;;;;;;;;11.96;49.00;101998.09;5004405;28;98949;-83
2021/03/23 08:33:41;;;;;;;;;;;;;;;11.66;49.64;102000.47;4999802;28;96705;-82
2021/03/23 08:36:20;;;;;;;;;;;;;;;11.53;49.24;102003.38;5004260;28;97228;-82
2021/03/23 08:38:56;;;;;;;;;;;;;;;11.15;50.56;102001.44;4994379;28;99201;-83
2021/03/23 08:41:28;;;;;;;;;;;;;;;11.46;49.91;102009.69;4986269;28;96936;-82
2021/03/23 08:43:54;;;;;;;;;;;;;;;11.22;50.13;102014.56;5001794;28;96704;-82
2021/03/23 08:46:22;;;;;;;;;;;;;;;11.41;49.81;102013.31;4991830;28;96715;-81
2021/03/23 08:48:50;;;;;;;;;;;;;;;11.35;50.24;102026.69;4993694;28;98334;-83
2021/03/23 08:51:20;;;;;;;;;;;;;;;10.85;51.68;102031.06;4996595;28;99302;-83
2021/03/23 08:53:54;;;;;;;;;;;;;;;10.76;51.66;102021.50;5002135;28;96957;-83
2021/03/23 08:56:38;;;;;;;;;;;;;;;11.15;50.78;102029.69;4994858;28;96865;-84
2021/03/23 08:59:17;;;;;;;;;;;;;;;11.62;50.07;102023.47;5003002;28;99351;-84
2021/03/23 09:01:43;;;;;;;;;;;;;;;11.79;48.99;102021.41;4993254;28;96762;-82
2021/03/23 09:04:39;;;;;;;;;;;;;;;11.10;50.06;102024.44;4988599;28;98055;-84
2021/03/23 09:07:20;;;;;;;;;;;;;;;11.82;49.05;102029.28;5005913;28;96648;-84
2021/03/23 09:09:47;;;;;;;;;;;;;;;11.55;49.54;102033.31;5002957;28;101517;-85
2021/03/23 09:12:33;;;;;;;;;;;;;;;12.02;48.56;102038.59;5011109;28;99503;-82
2021/03/23 09:15:17;;;;;;;;;;;;;;;12.19;47.62;102034.69;5015616;28;96845;-82
2021/03/23 09:18:00;;;;;;;;;;;;;;;11.80;48.52;102043.47;5016217;28;96997;-84
2021/03/23 09:20:45;;;;;;;;;;;;;;;12.11;47.93;102044.59;5002437;28;99891;-83
2021/03/23 09:23:29;;;;;;;;;;;;;;;11.63;49.19;102042.88;5015702;28;98100;-84
2021/03/23 09:25:58;;;;;;;;;;;;;;;12.03;48.27;102035.91;5013382;28;96725;-84
2021/03/23 09:28:44;;;;;;;;;;;;;;;11.81;48.29;102045.22;5000591;28;96691;-82
2021/03/23 09:31:13;;;;;;;;;;;;;;;12.07;48.34;102050.00;5010991;28;99441;-83
2021/03/23 09:33:40;;;;;;;;;;;;;;;12.48;46.97;102046.41;5000739;28;97027;-82
2021/03/23 09:36:39;;;;;;;;;;;;;;;12.25;47.04;102053.13;5004564;28;97092;-82
2021/03/23 09:39:31;;;;;;;;;;;;;;;12.72;45.98;102053.81;5002958;28;96796;-83
2021/03/23 09:42:12;;;;;;;;;;;;;;;12.25;47.18;102055.78;4995079;28;100524;-82
2021/03/23 09:44:39;;;;;;;;;;;;;;;12.26;47.16;102046.03;4989208;28;99252;-82
2021/03/23 09:47:27;;;;;;;;;;;;;;;12.33;46.57;102055.59;4992905;28;96795;-85
2021/03/23 09:49:54;;;;;;;;;;;;;;;12.40;46.49;102051.91;4998150;28;97721;-82
2021/03/23 09:52:26;;;;;;;;;;;;;;;12.66;45.62;102052.19;4994976;28;98660;-83
2021/03/23 09:54:58;;;;;;;;;;;;;;;12.16;46.72;102053.31;4995986;28;100294;-84
2021/03/23 09:57:24;;;;;;;;;;;;;;;12.84;45.65;102048.22;4997113;28;96892;-82
2021/03/23 09:59:54;;;;;;;;;;;;;;;12.59;45.87;102052.38;5002428;28;96945;-81
2021/03/23 10:02:27;;;;;;;;;;;;;;;12.18;46.58;102051.50;4997309;28;102573;-82
2021/03/23 10:04:53;;;;;;;;;;;;;;;12.06;46.70;102051.78;5002552;28;98142;-82
2021/03/23 10:07:27;;;;;;;;;;;;;;;12.45;45.87;102050.03;5003748;28;96781;-82
2021/03/23 10:09:53;;;;;;;;;;;;;;;12.60;45.51;102047.00;5004084;28;96969;-81
2021/03/23 10:12:27;;;;;;;;;;;;;;;13.02;45.04;102045.09;5010198;28;97849;-83
2021/03/23 10:14:53;;;;;;;;;;;;;;;12.52;45.49;102048.97;5007487;28;99176;-82
2021/03/23 10:17:22;;;;;;;;;;;;;;;12.78;44.87;102051.03;5004194;28;96790;-80
2021/03/23 10:19:50;;;;;;;;;;;;;;;12.67;44.77;102045.06;5003171;28;97233;-80
2021/03/23 10:22:17;;;;;;;;;;;;;;;12.93;44.54;102047.97;4997459;28;97825;-81
2021/03/23 10:24:46;;;;;;;;;;;;;;;13.43;43.24;102045.84;4998842;28;99111;-81
2021/03/23 10:27:15;;;;;;;;;;;;;;;13.33;43.19;102047.00;4994444;28;97115;-82
2021/03/23 10:29:53;;;;;;;;;;;;;;;13.38;43.11;102045.13;4995165;28;97145;-82
2021/03/23 10:32:20;;;;;;;;;;;;;;;13.60;42.62;102046.25;4998368;28;101929;-83
2021/03/23 10:37:39;;;;;;;;;;;;;;;13.31;42.77;102051.50;4998781;28;96838;-81
2021/03/23 10:40:07;;;;;;;;;;;;;;;13.52;42.74;102049.13;4988530;28;96983;-82
2021/03/23 10:42:35;;;;;;;;;;;;;;;13.32;42.56;102059.44;4985796;28;97812;-83
2021/03/23 10:45:10;;;;;;;;;;;;;;;13.85;41.63;102052.63;4984963;28;99833;-82
2021/03/23 10:47:46;;;;;;;;;;;;;;;13.89;41.48;102051.66;4973237;28;96827;-82
2021/03/23 10:50:13;;;;;;;;;;;;;;;13.80;41.26;102053.69;4986455;28;96814;-81
2021/03/23 10:52:43;;;;;;;;;;;;;;;13.59;41.67;102046.31;4982323;28;101888;-80
2021/03/23 10:55:27;;;;;;;;;;;;;;;13.91;41.32;102047.13;4979433;28;97646;-81
2021/03/23 10:58:08;;;;;;;;;;;;;;;13.75;41.47;102045.84;4976889;28;98715;-81
2021/03/23 11:00:34;;;;;;;;;;;;;;;13.87;40.62;102042.84;4986803;28;97391;-81
2021/03/23 11:03:11;;;;;;;;;;;;;;;13.88;40.75;102049.91;4979096;28;101897;-83
2021/03/23 11:05:42;;;;;;;;;;;;;;;14.30;40.40;102047.78;4973129;28;97537;-83
2021/03/23 11:08:14;;;;;;;;;;;;;;;14.09;40.73;102048.41;4979501;28;96850;-85
2021/03/23 11:10:42;;;;;;;;;;;;;;;14.18;40.35;102050.78;4980212;28;97365;-84
2021/03/23 11:13:11;;;;;;;;;;;;;;;14.55;39.71;102052.38;4979438;28;98118;-84
2021/03/23 11:15:43;;;;;;;;;;;;;;;14.33;39.92;102045.00;4986664;28;100353;-84
2021/03/23 11:18:26;;;;;;;;;;;;;;;14.71;38.91;102042.97;4988168;28;96792;-83
2021/03/23 11:21:04;;;;;;;;;;;;;;;14.55;39.12;102042.59;4992436;28;97434;-83
2021/03/23 11:23:37;;;;;;;;;;;;;;;14.63;39.07;102040.56;4982420;28;98283;-82
2021/03/23 11:26:04;;;;;;;;;;;;;;;14.31;39.40;102041.50;5003333;28;97015;-81
2021/03/23 11:28:33;;;;;;;;;;;;;;;14.54;39.01;102038.19;5010395;28;96044;-83
2021/03/23 11:31:03;;;;;;;;;;;;;;;14.29;38.87;102038.06;5004814;28;96726;-84
2021/03/23 11:33:29;;;;;;;;;;;;;;;13.82;39.59;102034.13;5000331;28;100156;-82
2021/03/23 11:35:55;;;;;;;;;;;;;;;14.31;39.50;102035.31;4996824;28;96651;-83
2021/03/23 11:38:25;;;;;;;;;;;;;;;14.43;38.99;102040.31;5004255;28;95912;-82
2021/03/23 11:40:53;;;;;;;;;;;;;;;14.44;38.88;102031.41;4997051;28;97598;-81
2021/03/23 11:43:35;;;;;;;;;;;;;;;14.43;39.23;102032.34;5004839;28;98378;-83
2021/03/23 11:46:05;;;;;;;;;;;;;;;14.14;39.19;102021.69;4997175;28;97807;-83
2021/03/23 11:48:33;;;;;;;;;;;;;;;13.64;39.96;102028.47;4992634;28;96889;-82
2021/03/23 11:51:01;;;;;;;;;;;;;;;13.79;39.62;102020.91;4983733;28;97362;-81
2021/03/23 11:53:28;;;;;;;;;;;;;;;13.61;40.25;102025.88;4980871;28;98033;-83
2021/03/23 11:55:56;;;;;;;;;;;;;;;13.46;40.54;102024.50;4983517;28;99964;-81
2021/03/23 11:58:23;;;;;;;;;;;;;;;13.56;40.63;102024.25;4980303;28;96373;-81
2021/03/23 12:00:49;;;;;;;;;;;;;;;13.46;40.39;102032.47;4986828;28;95969;-84
2021/03/23 12:03:28;;;;;;;;;;;;;;;13.44;40.27;102032.53;4977944;28;99632;-84
2021/03/23 12:05:54;;;;;;;;;;;;;;;13.72;39.94;102022.00;4980510;28;100229;-84
2021/03/23 12:08:29;;;;;;;;;;;;;;;13.56;40.56;102034.88;4978284;28;96824;-84
2021/03/23 12:11:02;;;;;;;;;;;;;;;12.99;42.19;102021.31;4985455;28;96951;-85
2021/03/23 12:13:33;;;;;;;;;;;;;;;13.54;41.21;102027.84;4975073;28;97471;-83
2021/03/23 12:16:03;;;;;;;;;;;;;;;12.92;42.69;102026.81;4964549;28;97801;-83
2021/03/23 12:18:30;;;;;;;;;;;;;;;13.28;42.02;102028.53;4974251;28;96835;-84
2021/03/23 12:21:00;;;;;;;;;;;;;;;13.21;42.02;102026.09;4977334;28;96883;-82
2021/03/23 12:23:28;;;;;;;;;;;;;;;13.32;41.57;102024.03;4982190;28;100288;-84
2021/03/23 12:25:54;;;;;;;;;;;;;;;13.25;41.57;102020.69;4968880;28;101676;-83
2021/03/23 12:28:36;;;;;;;;;;;;;;;13.45;40.96;102020.16;4979718;28;97675;-84
2021/03/23 12:31:03;;;;;;;;;;;;;;;13.44;41.12;102013.09;4962362;28;97003;-84
2021/03/23 12:33:29;;;;;;;;;;;;;;;13.55;40.63;102019.84;4970734;28;97061;-82
2021/03/23 12:35:55;;;;;;;;;;;;;;;13.13;41.33;102024.50;4977256;28;99287;-84